Time,TemperatureF,DewpointF,PressureIn,WindDirection,WindDirectionDegrees,WindSpeedMPH,WindSpeedGustMPH,Humidity,HourlyPrecipIn,Conditions,Clouds,dailyrainin,SoftwareType,DateUTC
2013-11-19 00:13:00,35.0,29.0,29.52,NNW,327,3.0,22.0,80,0.00,,,0.00,weatherlink.com 1.10,2013-11-19 05:13:00,
2013-11-19 00:28:00,34.3,29.0,29.52,SSW,208,2.0,11.0,80,0.00,,,0.00,weatherlink.com 1.10,2013-11-19 05:28:00,
2013-11-19 00:43:00,33.8,28.0,29.52,South,182,2.0,9.0,80,0.00,,,0.00,weatherlink.com 1.10,2013-11-19 05:43:00,
2013-11-19 00:58:00,33.4,28.0,29.53,WSW,252,1.0,9.0,81,0.00,,,0.00,weatherlink.com 1.10,2013-11-19 05:58:00,
2013-11-19 01:13:00,33.1,27.0,29.53,SSE,157,1.0,12.0,79,0.00,,,0.00,weatherlink.com 1.10,2013-11-19 06:13:00,
2013-11-19 01:28:00,32.7,26.0,29.53,North,5,7.0,17.0,76,0.00,,,0.00,weatherlink.com 1.10,2013-11-19 06:28:00,
2013-11-19 01:43:00,32.0,25.0,29.54,NNW,348,2.0,13.0,76,0.00,,,0.00,weatherlink.com 1.10,2013-11-19 06:43:00,
2013-11-19 01:58:00,31.6,25.0,29.53,NNW,340,2.0,20.0,76,0.00,,,0.00,weatherlink.com 1.10,2013-11-19 06:58:00,
2013-11-19 02:13:00,31.2,24.0,29.54,NNE,13,6.0,28.0,74,0.00,,,0.00,weatherlink.com 1.10,2013-11-19 07:13:00,
2013-11-19 02:28:00,31.0,25.0,29.55,NW,324,5.0,22.0,77,0.00,,,0.00,weatherlink.com 1.10,2013-11-19 07:28:00,
2013-11-19 02:44:00,28.8,25.0,29.57,North,355,15.0,20.0,85,0.00,,,0.00,weatherlink.com 1.10,2013-11-19 07:44:00,
2013-11-19 02:59:00,27.6,23.0,29.58,NW,318,6.0,21.0,83,0.00,,,0.00,weatherlink.com 1.10,2013-11-19 07:59:00,
2013-11-19 03:14:00,26.8,22.0,29.59,North,11,4.0,19.0,82,0.00,,,0.00,weatherlink.com 1.10,2013-11-19 08:14:00,
2013-11-19 03:29:00,26.5,21.0,29.60,WSW,247,5.0,20.0,80,0.00,,,0.00,weatherlink.com 1.10,2013-11-19 08:29:00,
2013-11-19 03:44:00,26.1,20.0,29.61,NNE,32,5.0,20.0,77,0.00,,,0.00,weatherlink.com 1.10,2013-11-19 08:44:00,
2013-11-19 03:59:00,25.8,20.0,29.61,North,5,9.0,17.0,77,0.00,,,0.00,weatherlink.com 1.10,2013-11-19 08:59:00,
2013-11-19 04:14:00,25.7,19.0,29.62,North,355,7.0,17.0,77,0.00,,,0.00,weatherlink.com 1.10,2013-11-19 09:14:00,
2013-11-19 04:29:00,25.4,19.0,29.63,NNE,16,8.0,22.0,77,0.00,,,0.00,weatherlink.com 1.10,2013-11-19 09:29:00,
2013-11-19 04:44:00,25.2,18.0,29.64,North,11,7.0,18.0,75,0.00,,,0.00,weatherlink.com 1.10,2013-11-19 09:44:00,
2013-11-19 04:59:00,25.0,18.0,29.64,NNW,346,6.0,25.0,74,0.00,,,0.00,weatherlink.com 1.10,2013-11-19 09:59:00,
2013-11-19 05:14:00,24.7,18.0,29.66,NNW,340,13.0,18.0,75,0.00,,,0.00,weatherlink.com 1.10,2013-11-19 10:14:00,
2013-11-19 05:29:00,24.5,17.0,29.67,North,349,7.0,20.0,74,0.00,,,0.00,weatherlink.com 1.10,2013-11-19 10:29:00,
2013-11-19 05:44:00,24.2,17.0,29.67,NNE,12,8.0,20.0,75,0.00,,,0.00,weatherlink.com 1.10,2013-11-19 10:44:00,
2013-11-19 05:59:00,24.1,18.0,29.69,NW,310,7.0,19.0,76,0.00,,,0.00,weatherlink.com 1.10,2013-11-19 10:59:00,
2013-11-19 06:14:00,23.9,17.0,29.69,NNW,344,14.0,18.0,75,0.00,,,0.00,weatherlink.com 1.10,2013-11-19 11:14:00,
2013-11-19 06:29:00,23.5,17.0,29.70,North,355,6.0,19.0,76,0.00,,,0.00,weatherlink.com 1.10,2013-11-19 11:29:00,
2013-11-19 06:44:00,23.3,17.0,29.72,North,355,3.0,18.0,77,0.00,,,0.00,weatherlink.com 1.10,2013-11-19 11:44:00,
2013-11-19 06:59:00,23.1,17.0,29.72,North,9,7.0,23.0,78,0.00,,,0.00,weatherlink.com 1.10,2013-11-19 11:59:00,
2013-11-19 07:14:00,23.0,18.0,29.73,North,355,9.0,21.0,80,0.00,,,0.00,weatherlink.com 1.10,2013-11-19 12:14:00,
2013-11-19 07:29:00,22.9,18.0,29.74,NNE,22,6.0,20.0,81,0.00,,,0.00,weatherlink.com 1.10,2013-11-19 12:29:00,
2013-11-19 07:44:00,22.9,18.0,29.75,NNW,340,4.0,19.0,82,0.00,,,0.00,weatherlink.com 1.10,2013-11-19 12:44:00,
2013-11-19 08:00:00,22.9,19.0,29.75,NNW,334,12.0,19.0,83,0.00,,,0.00,weatherlink.com 1.10,2013-11-19 13:00:00,
2013-11-19 08:15:00,23.0,18.0,29.76,NNW,347,8.0,23.0,82,0.00,,,0.00,weatherlink.com 1.10,2013-11-19 13:15:00,
2013-11-19 08:30:00,22.9,19.0,29.77,NNE,13,6.0,20.0,83,0.00,,,0.00,weatherlink.com 1.10,2013-11-19 13:30:00,
2013-11-19 08:45:00,22.6,19.0,29.77,North,355,14.0,16.0,84,0.00,,,0.00,weatherlink.com 1.10,2013-11-19 13:45:00,
2013-11-19 09:00:00,22.6,19.0,29.78,NNW,337,8.0,25.0,85,0.00,,,0.00,weatherlink.com 1.10,2013-11-19 14:00:00,
2013-11-19 09:15:00,22.8,19.0,29.79,NNW,345,9.0,21.0,85,0.00,,,0.00,weatherlink.com 1.10,2013-11-19 14:15:00,
2013-11-19 09:30:00,23.3,19.0,29.80,North,351,9.0,19.0,84,0.00,,,0.00,weatherlink.com 1.10,2013-11-19 14:30:00,
2013-11-19 09:45:00,22.4,19.0,29.81,North,360,10.0,19.0,88,0.00,,,0.00,weatherlink.com 1.10,2013-11-19 14:45:00,
2013-11-19 10:00:00,22.4,19.0,29.82,NNW,331,16.0,23.0,88,0.00,,,0.00,weatherlink.com 1.10,2013-11-19 15:00:00,
2013-11-19 10:15:00,23.1,19.0,29.82,NNE,22,8.0,27.0,83,0.00,,,0.00,weatherlink.com 1.10,2013-11-19 15:15:00,
2013-11-19 10:30:00,23.1,18.0,29.83,North,360,7.0,26.0,81,0.00,,,0.00,weatherlink.com 1.10,2013-11-19 15:30:00,
2013-11-19 10:45:00,22.6,19.0,29.84,NNW,340,12.0,19.0,86,0.00,,,0.00,weatherlink.com 1.10,2013-11-19 15:45:00,
2013-11-19 11:00:00,22.8,18.0,29.84,NNW,343,14.0,21.0,80,0.00,,,0.00,weatherlink.com 1.10,2013-11-19 16:00:00,
2013-11-19 11:15:00,23.5,17.0,29.84,North,351,9.0,25.0,76,0.00,,,0.00,weatherlink.com 1.10,2013-11-19 16:15:00,
2013-11-19 11:30:00,23.6,17.0,29.85,NNW,331,7.0,18.0,75,0.00,,,0.00,weatherlink.com 1.10,2013-11-19 16:30:00,
2013-11-19 11:45:00,23.7,17.0,29.85,North,5,5.0,23.0,75,0.00,,,0.00,weatherlink.com 1.10,2013-11-19 16:45:00,
2013-11-19 12:00:00,23.9,16.0,29.85,NNW,341,8.0,21.0,73,0.00,,,0.00,weatherlink.com 1.10,2013-11-19 17:00:00,
2013-11-19 12:15:00,24.3,16.0,29.86,NNE,29,9.0,23.0,72,0.00,,,0.00,weatherlink.com 1.10,2013-11-19 17:15:00,
2013-11-19 12:30:00,24.4,16.0,29.87,North,355,5.0,26.0,71,0.00,,,0.00,weatherlink.com 1.10,2013-11-19 17:30:00,
2013-11-19 12:45:00,24.8,17.0,29.88,NNW,328,7.0,19.0,71,0.00,,,0.00,weatherlink.com 1.10,2013-11-19 17:45:00,
2013-11-19 13:00:00,24.3,17.0,29.89,NNE,19,13.0,19.0,75,0.00,,,0.00,weatherlink.com 1.10,2013-11-19 18:00:00,
2013-11-19 13:15:00,24.5,16.0,29.89,NNW,327,8.0,23.0,71,0.00,,,0.00,weatherlink.com 1.10,2013-11-19 18:15:00,
2013-11-19 13:30:00,24.7,16.0,29.90,NNE,24,13.0,21.0,70,0.00,,,0.00,weatherlink.com 1.10,2013-11-19 18:30:00,
2013-11-19 13:45:00,24.6,17.0,29.91,NNW,333,9.0,19.0,72,0.00,,,0.00,weatherlink.com 1.10,2013-11-19 18:45:00,
2013-11-19 14:00:00,24.1,17.0,29.92,NNW,347,8.0,21.0,74,0.00,,,0.00,weatherlink.com 1.10,2013-11-19 19:00:00,
2013-11-19 14:15:00,24.1,17.0,29.92,NNE,14,10.0,22.0,74,0.00,,,0.00,weatherlink.com 1.10,2013-11-19 19:15:00,
2013-11-19 14:30:00,23.9,17.0,29.94,North,355,8.0,16.0,75,0.00,,,0.00,weatherlink.com 1.10,2013-11-19 19:30:00,
2013-11-19 14:45:00,23.8,17.0,29.95,NNW,341,9.0,23.0,75,0.00,,,0.00,weatherlink.com 1.10,2013-11-19 19:45:00,
2013-11-19 15:00:00,23.7,18.0,29.96,North,9,7.0,21.0,77,0.00,,,0.00,weatherlink.com 1.10,2013-11-19 20:00:00,
2013-11-19 15:15:00,23.5,18.0,29.98,North,11,4.0,19.0,78,0.00,,,0.00,weatherlink.com 1.10,2013-11-19 20:15:00,
2013-11-19 15:30:00,23.4,18.0,30.00,North,5,3.0,16.0,79,0.00,,,0.00,weatherlink.com 1.10,2013-11-19 20:30:00,
2013-11-19 15:45:00,23.1,18.0,30.02,North,351,8.0,21.0,80,0.00,,,0.00,weatherlink.com 1.10,2013-11-19 20:45:00,
2013-11-19 16:01:00,22.9,19.0,30.03,NNW,339,7.0,16.0,83,0.00,,,0.00,weatherlink.com 1.10,2013-11-19 21:01:00,
2013-11-19 16:16:00,22.5,19.0,30.04,North,360,3.0,13.0,85,0.00,,,0.00,weatherlink.com 1.10,2013-11-19 21:16:00,
2013-11-19 16:31:00,22.5,18.0,30.05,NNE,30,5.0,17.0,83,0.00,,,0.00,weatherlink.com 1.10,2013-11-19 21:31:00,
2013-11-19 16:46:00,22.6,18.0,30.06,NNW,337,12.0,22.0,83,0.00,,,0.00,weatherlink.com 1.10,2013-11-19 21:46:00,
2013-11-19 17:46:00,22.4,17.0,30.10,NNE,14,6.0,16.0,81,0.00,,,0.00,weatherlink.com 1.10,2013-11-19 22:46:00,
2013-11-19 18:00:00,22.6,18.0,30.10,North,5,17.0,17.0,82,0.00,,,0.00,weatherlink.com 1.10,2013-11-19 23:00:00,
2013-11-19 18:15:00,22.5,18.0,30.11,North,360,8.0,13.0,81,0.00,,,0.00,weatherlink.com 1.10,2013-11-19 23:15:00,
2013-11-19 18:30:00,22.4,17.0,30.11,NE,38,4.0,16.0,81,0.00,,,0.00,weatherlink.com 1.10,2013-11-19 23:30:00,
2013-11-19 18:45:00,22.3,18.0,30.12,NNE,20,12.0,21.0,82,0.00,,,0.00,weatherlink.com 1.10,2013-11-19 23:45:00,
2013-11-19 19:00:00,21.9,18.0,30.13,North,355,8.0,16.0,86,0.00,,,0.00,weatherlink.com 1.10,2013-11-20 00:00:00,
2013-11-19 19:15:00,21.6,18.0,30.14,NNW,327,10.0,14.0,87,0.00,,,0.00,weatherlink.com 1.10,2013-11-20 00:15:00,
2013-11-19 19:30:00,21.5,19.0,30.15,North,5,5.0,21.0,88,0.00,,,0.00,weatherlink.com 1.10,2013-11-20 00:30:00,
2013-11-19 19:45:00,21.5,18.0,30.16,NW,304,6.0,17.0,86,0.00,,,0.00,weatherlink.com 1.10,2013-11-20 00:45:00,
2013-11-19 20:00:00,21.6,18.0,30.17,NNW,329,11.0,15.0,86,0.00,,,0.00,weatherlink.com 1.10,2013-11-20 01:00:00,
2013-11-19 20:15:00,21.5,18.0,30.17,North,360,6.0,14.0,87,0.00,,,0.00,weatherlink.com 1.10,2013-11-20 01:15:00,
2013-11-19 20:30:00,21.5,18.0,30.18,NNW,340,13.0,19.0,86,0.00,,,0.00,weatherlink.com 1.10,2013-11-20 01:30:00,
2013-11-19 20:45:00,21.5,18.0,30.19,NNE,19,8.0,15.0,85,0.00,,,0.00,weatherlink.com 1.10,2013-11-20 01:45:00,
2013-11-19 21:00:00,21.5,17.0,30.20,NNE,25,16.0,16.0,84,0.00,,,0.00,weatherlink.com 1.10,2013-11-20 02:00:00,
2013-11-19 21:15:00,21.5,17.0,30.20,NNE,18,10.0,22.0,84,0.00,,,0.00,weatherlink.com 1.10,2013-11-20 02:15:00,
2013-11-19 21:30:00,21.6,17.0,30.21,NNE,21,5.0,17.0,81,0.00,,,0.00,weatherlink.com 1.10,2013-11-20 02:30:00,
2013-11-19 21:45:00,21.2,17.0,30.22,North,350,4.0,22.0,85,0.00,,,0.00,weatherlink.com 1.10,2013-11-20 02:45:00,
2013-11-19 22:00:00,21.3,17.0,30.22,NNW,330,5.0,15.0,82,0.00,,,0.00,weatherlink.com 1.10,2013-11-20 03:00:00,
2013-11-19 22:15:00,21.5,16.0,30.23,NNW,338,9.0,23.0,79,0.00,,,0.00,weatherlink.com 1.10,2013-11-20 03:15:00,
2013-11-19 22:31:00,21.5,15.0,30.24,North,355,11.0,17.0,77,0.00,,,0.00,weatherlink.com 1.10,2013-11-20 03:31:00,
2013-11-19 22:46:00,21.6,15.0,30.25,North,355,3.0,16.0,76,0.00,,,0.00,weatherlink.com 1.10,2013-11-20 03:46:00,
2013-11-19 23:01:00,21.6,15.0,30.25,NNE,16,5.0,17.0,75,0.00,,,0.00,weatherlink.com 1.10,2013-11-20 04:01:00,
2013-11-19 23:16:00,21.6,15.0,30.25,NW,322,9.0,17.0,74,0.00,,,0.00,weatherlink.com 1.10,2013-11-20 04:16:00,
2013-11-19 23:31:00,21.6,15.0,30.26,NNE,13,10.0,17.0,75,0.00,,,0.00,weatherlink.com 1.10,2013-11-20 04:31:00,
2013-11-19 23:46:00,21.4,15.0,30.27,NNE,12,11.0,18.0,77,0.00,,,0.00,weatherlink.com 1.10,2013-11-20 04:46:00,